Time;durP1;ratioP1;P1;durP2;ratioP2;P2;SDS_P1;SDS_P2;PMS_P1;PMS_P2;Temp;Humidity;BMP_temperature;BMP_pressure;BME280_temperature;BME280_humidity;BME280_pressure;Samples;Min_cycle;Max_cycle;Signal;HPM_P1;HPM_P2
2023/08/19 00:01:10;;;;;;;7.50;3.38;;;;;;;20.39;100.00;95845.59;5050030;28;24440;-76
2023/08/19 00:03:37;;;;;;;7.55;3.78;;;;;;;20.36;100.00;95854.63;5045826;28;24497;-75
2023/08/19 00:06:06;;;;;;;10.25;4.15;;;;;;;20.37;100.00;95848.38;5031396;28;24485;-73
2023/08/19 00:08:32;;;;;;;11.00;3.65;;;;;;;20.43;100.00;95850.41;5047844;28;24446;-76
2023/08/19 00:10:59;;;;;;;6.10;3.38;;;;;;;20.42;100.00;95851.34;5050342;28;24949;-75
2023/08/19 00:13:25;;;;;;;7.38;3.75;;;;;;;20.31;100.00;95847.19;5044175;28;24758;-75
2023/08/19 00:15:53;;;;;;;8.38;3.67;;;;;;;20.23;100.00;95844.50;5038325;28;24458;-76
2023/08/19 00:18:20;;;;;;;9.30;3.55;;;;;;;19.96;100.00;95834.94;5049866;28;24439;-76
2023/08/19 00:20:47;;;;;;;6.83;4.00;;;;;;;19.87;100.00;95843.72;5031920;28;24812;-77
2023/08/19 00:23:15;;;;;;;7.43;3.65;;;;;;;20.03;100.00;95840.44;5030972;28;24531;-76
2023/08/19 00:25:42;;;;;;;9.73;3.33;;;;;;;20.13;100.00;95849.03;5039525;28;24460;-76
2023/08/19 00:28:08;;;;;;;5.43;3.65;;;;;;;20.20;100.00;95841.34;5037007;28;24435;-76
2023/08/19 00:30:35;;;;;;;7.65;3.35;;;;;;;20.23;100.00;95843.69;5041257;28;24443;-76
2023/08/19 00:33:03;;;;;;;7.60;3.30;;;;;;;20.28;100.00;95841.41;5046309;28;24438;-75
2023/08/19 00:35:31;;;;;;;6.30;3.33;;;;;;;20.28;100.00;95841.41;5030674;28;24440;-75
2023/08/19 00:37:58;;;;;;;4.90;3.25;;;;;;;20.25;100.00;95847.81;5030002;28;24448;-75
2023/08/19 00:40:25;;;;;;;5.47;3.17;;;;;;;20.27;100.00;95842.38;5030409;28;24440;-76
2023/08/19 00:42:51;;;;;;;6.32;3.30;;;;;;;20.23;100.00;95841.88;5046279;28;24989;-77
2023/08/19 00:45:18;;;;;;;8.95;4.05;;;;;;;20.20;100.00;95841.34;5030372;28;24443;-76
2023/08/19 00:47:45;;;;;;;10.13;4.00;;;;;;;20.14;100.00;95847.25;5030044;28;24435;-76
2023/08/19 00:50:14;;;;;;;5.63;3.47;;;;;;;20.09;100.00;95845.06;5042689;28;24435;-77
2023/08/19 00:52:41;;;;;;;8.25;4.13;;;;;;;20.06;100.00;95848.00;5048710;28;24442;-76
2023/08/19 00:55:08;;;;;;;7.25;3.47;;;;;;;20.04;100.00;95842.88;5030145;28;24439;-76
2023/08/19 00:57:37;;;;;;;5.60;3.60;;;;;;;20.06;100.00;95851.47;5030013;28;25327;-76
2023/08/19 01:00:05;;;;;;;8.88;3.95;;;;;;;20.01;100.00;95842.38;5029969;28;24486;-76
2023/08/19 01:02:32;;;;;;;6.55;3.28;;;;;;;20.01;100.00;95842.38;5045517;28;24431;-76
2023/08/19 01:04:59;;;;;;;4.85;3.67;;;;;;;19.98;100.00;95843.50;5046638;28;24446;-76
2023/08/19 01:07:34;;;;;;;7.13;3.45;;;;;;;19.94;100.00;95838.69;5036102;28;25018;-75
2023/08/19 01:10:07;;;;;;;7.55;3.92;;;;;;;19.98;100.00;95840.03;5049577;28;24446;-77
2023/08/19 01:12:40;;;;;;;8.68;4.00;;;;;;;20.00;100.00;95840.72;5049042;28;24806;-76
2023/08/19 01:15:12;;;;;;;15.90;3.70;;;;;;;19.98;100.00;95837.41;5049659;28;24489;-76
2023/08/19 01:17:38;;;;;;;10.35;3.60;;;;;;;19.97;100.00;95830.50;5049187;28;24458;-77
2023/08/19 01:20:08;;;;;;;6.22;3.20;;;;;;;19.95;100.00;95833.31;5038326;28;24436;-76
2023/08/19 01:22:49;;;;;;;8.35;3.28;;;;;;;19.92;100.00;95833.59;5044935;28;24536;-75
2023/08/19 01:25:19;;;;;;;8.43;3.78;;;;;;;19.83;100.00;95830.06;5014878;28;24447;-76
2023/08/19 01:27:45;;;;;;;6.00;3.47;;;;;;;19.79;100.00;95827.91;5028654;28;24428;-75
2023/08/19 01:30:13;;;;;;;6.25;3.47;;;;;;;19.75;100.00;95835.25;5029609;28;24435;-77
2023/08/19 01:32:39;;;;;;;10.95;3.50;;;;;;;19.77;100.00;95832.50;5045656;28;24446;-74
2023/08/19 01:35:06;;;;;;;7.55;3.95;;;;;;;19.74;100.00;95830.16;5048880;28;24442;-76
2023/08/19 01:37:40;;;;;;;6.82;3.80;;;;;;;19.77;100.00;95819.34;5037156;28;24452;-76
2023/08/19 01:40:10;;;;;;;6.22;3.58;;;;;;;19.76;100.00;95818.53;5040185;28;24446;-76
2023/08/19 01:42:39;;;;;;;5.32;3.85;;;;;;;19.67;100.00;95831.75;5033514;28;24436;-76
2023/08/19 01:45:07;;;;;;;5.15;3.60;;;;;;;19.59;100.00;95824.59;5052248;28;24450;-75
2023/08/19 01:47:35;;;;;;;6.10;3.72;;;;;;;19.57;100.00;95832.59;5052712;28;24443;-76
2023/08/19 01:50:02;;;;;;;8.45;3.88;;;;;;;19.59;100.00;95829.84;5033335;28;24443;-74
2023/08/19 01:52:28;;;;;;;11.02;3.85;;;;;;;19.63;100.00;95833.03;5032906;28;24997;-75
2023/08/19 01:54:55;;;;;;;9.02;3.58;;;;;;;19.64;100.00;95834.66;5036410;28;24439;-76
2023/08/19 01:57:21;;;;;;;5.63;3.60;;;;;;;19.66;100.00;95830.09;5038744;28;24447;-76
2023/08/19 01:59:51;;;;;;;11.00;4.10;;;;;;;19.59;100.00;95835.09;5035918;28;24451;-77
2023/08/19 02:02:17;;;;;;;7.55;3.70;;;;;;;19.59;100.00;95830.66;5045521;28;24467;-76
2023/08/19 02:04:44;;;;;;;6.05;3.20;;;;;;;19.59;100.00;95830.66;5043450;28;24985;-76
2023/08/19 02:07:10;;;;;;;5.97;3.80;;;;;;;19.54;100.00;95829.44;5050747;28;24470;-74
2023/08/19 02:09:37;;;;;;;5.22;3.67;;;;;;;19.50;100.00;95828.91;5039480;28;24451;-77
2023/08/19 02:12:03;;;;;;;11.45;4.07;;;;;;;19.50;100.00;95833.34;5042923;28;24442;-76
2023/08/19 02:14:30;;;;;;;8.23;3.38;;;;;;;19.42;100.00;95833.28;5051886;28;24434;-77
2023/08/19 02:16:58;;;;;;;6.32;3.63;;;;;;;19.40;100.00;95830.81;5051393;28;24492;-75
2023/08/19 02:19:24;;;;;;;8.30;3.53;;;;;;;19.45;100.00;95833.81;5032366;28;24443;-75
2023/08/19 02:21:51;;;;;;;7.45;3.55;;;;;;;19.44;100.00;95826.91;5040299;28;24438;-76
2023/08/19 02:24:18;;;;;;;6.68;4.00;;;;;;;19.50;100.00;95831.53;5051867;28;24974;-77
2023/08/19 02:26:44;;;;;;;5.55;3.38;;;;;;;19.42;100.00;95831.47;5041704;28;24432;-76
2023/08/19 02:29:11;;;;;;;9.20;3.63;;;;;;;19.41;100.00;95829.81;5036289;28;24830;-75
2023/08/19 02:31:39;;;;;;;9.25;3.83;;;;;;;19.33;100.00;95824.50;5046473;28;24887;-76
2023/08/19 02:34:07;;;;;;;7.30;3.80;;;;;;;19.11;100.00;95833.63;5028010;28;24796;-76
2023/08/19 02:36:33;;;;;;;7.65;3.85;;;;;;;19.09;100.00;95836.38;5032025;28;24462;-76
2023/08/19 02:39:00;;;;;;;10.90;3.60;;;;;;;19.14;100.00;95828.06;5033898;28;24443;-76
2023/08/19 02:41:26;;;;;;;9.27;3.60;;;;;;;19.19;100.00;95831.06;5047163;28;24453;-76
2023/08/19 02:43:53;;;;;;;7.25;3.88;;;;;;;19.14;100.00;95841.22;5029424;28;24432;-76
2023/08/19 02:46:19;;;;;;;8.73;3.65;;;;;;;19.12;100.00;95831.81;5033018;28;24459;-76
2023/08/19 02:48:46;;;;;;;6.60;3.70;;;;;;;19.09;100.00;95841.63;5032133;28;24442;-77
2023/08/19 02:51:14;;;;;;;5.15;3.60;;;;;;;19.14;100.00;95843.00;5033428;28;24986;-76
2023/08/19 02:53:40;;;;;;;7.53;3.67;;;;;;;19.18;100.00;95832.06;5036701;28;24432;-76
2023/08/19 02:56:07;;;;;;;8.70;3.85;;;;;;;19.23;100.00;95831.59;5027607;28;24442;-76
2023/08/19 02:58:34;;;;;;;7.50;3.60;;;;;;;19.18;100.00;95837.31;5024067;28;24525;-77
2023/08/19 03:01:00;;;;;;;6.15;3.50;;;;;;;19.15;100.00;95840.22;5031631;28;24431;-75
2023/08/19 03:03:27;;;;;;;6.25;4.32;;;;;;;19.10;100.00;95838.03;5032304;28;24439;-76
2023/08/19 03:05:58;;;;;;;12.55;4.60;;;;;;;19.05;100.00;95845.50;5031919;28;24466;-76
2023/08/19 03:08:26;;;;;;;6.70;4.03;;;;;;;19.02;100.00;95834.47;5035127;28;24435;-76
2023/08/19 03:10:53;;;;;;;11.68;3.90;;;;;;;19.02;100.00;95835.34;5027187;28;24846;-76
2023/08/19 03:13:19;;;;;;;7.50;3.80;;;;;;;19.03;100.00;95842.22;5035250;28;24443;-76
2023/08/19 03:15:46;;;;;;;8.13;4.22;;;;;;;19.04;100.00;95837.81;5032705;28;24489;-75
2023/08/19 03:18:14;;;;;;;5.97;4.00;;;;;;;19.06;100.00;95836.69;5040372;28;24466;-76
2023/08/19 03:20:41;;;;;;;9.45;4.20;;;;;;;19.06;100.00;95833.25;5050816;28;24435;-76
2023/08/19 03:23:08;;;;;;;9.15;3.83;;;;;;;19.01;100.00;95833.66;5049530;28;24427;-76
2023/08/19 03:25:36;;;;;;;7.57;3.47;;;;;;;18.94;100.00;95837.84;5032019;28;24448;-76
2023/08/19 03:28:02;;;;;;;6.00;3.47;;;;;;;18.90;100.00;95836.47;5038035;28;25223;-76
2023/08/19 03:30:29;;;;;;;10.95;3.78;;;;;;;18.89;100.00;95836.66;5036533;28;24444;-76
2023/08/19 03:32:55;;;;;;;6.97;3.55;;;;;;;18.91;100.00;95835.53;5022603;28;25069;-76
2023/08/19 03:35:22;;;;;;;5.43;3.60;;;;;;;18.88;100.00;95835.81;5032498;28;24439;-76
2023/08/19 03:37:48;;;;;;;5.40;3.30;;;;;;;18.81;100.00;95832.94;5040568;28;24459;-76
2023/08/19 03:40:15;;;;;;;6.28;3.65;;;;;;;18.76;100.00;95836.97;5028827;28;24443;-75
2023/08/19 03:42:42;;;;;;;6.75;3.55;;;;;;;18.77;100.00;95833.38;5043932;28;24985;-76
2023/08/19 03:45:09;;;;;;;7.45;3.42;;;;;;;18.70;100.00;95834.91;5032738;28;24439;-75
2023/08/19 03:47:35;;;;;;;10.98;3.60;;;;;;;18.79;100.00;95837.50;5047898;28;24447;-76
2023/08/19 03:50:02;;;;;;;5.72;3.47;;;;;;;18.66;100.00;95846.66;5037725;28;24437;-76
2023/08/19 03:52:28;;;;;;;9.02;3.75;;;;;;;18.54;100.00;95844.22;5022184;28;24439;-76
2023/08/19 03:54:55;;;;;;;7.05;3.55;;;;;;;18.60;100.00;95840.19;5030976;28;24823;-76
2023/08/19 03:57:21;;;;;;;6.07;3.85;;;;;;;18.47;100.00;95845.75;5031290;28;24475;-76
2023/08/19 03:59:51;;;;;;;6.15;3.45;;;;;;;18.45;100.00;95839.81;5031469;28;24434;-74
2023/08/19 04:02:17;;;;;;;9.05;3.70;;;;;;;18.31;100.00;95845.50;5030432;28;24478;-75
2023/08/19 04:04:57;;;;;;;6.07;3.20;;;;;;;18.28;100.00;95843.16;5043519;28;24451;-74
2023/08/19 04:07:24;;;;;;;7.90;3.80;;;;;;;18.26;100.00;95845.94;5050257;28;24407;-75
2023/08/19 04:09:50;;;;;;;5.75;3.47;;;;;;;18.27;100.00;95841.53;5050654;28;24460;-74
2023/08/19 04:12:17;;;;;;;5.67;3.40;;;;;;;18.32;100.00;95845.38;5050787;28;24471;-75
2023/08/19 04:14:43;;;;;;;7.32;3.67;;;;;;;18.24;100.00;95837.38;5050426;28;24950;-75
2023/08/19 04:17:11;;;;;;;5.68;3.58;;;;;;;18.29;100.00;95839.59;5050421;28;24469;-75
2023/08/19 04:19:38;;;;;;;6.88;3.70;;;;;;;18.24;100.00;95844.41;5048980;28;25006;-74
2023/08/19 04:22:04;;;;;;;5.63;3.40;;;;;;;18.13;100.00;95834.91;5037891;28;24442;-75
2023/08/19 04:24:32;;;;;;;7.15;3.65;;;;;;;17.99;100.00;95844.06;5050405;28;24419;-75
2023/08/19 04:26:59;;;;;;;5.93;3.75;;;;;;;18.01;100.00;95838.69;5050392;28;24455;-75
2023/08/19 04:29:26;;;;;;;7.32;3.60;;;;;;;18.01;100.00;95843.91;5050351;28;24461;-74
2023/08/19 04:31:52;;;;;;;4.88;3.85;;;;;;;18.00;100.00;95843.09;5040035;28;24451;-75
2023/08/19 04:34:20;;;;;;;5.45;3.60;;;;;;;18.01;100.00;95844.75;5030455;28;24428;-75
2023/08/19 04:36:47;;;;;;;5.88;3.35;;;;;;;18.00;100.00;95845.72;5030428;28;24416;-74
2023/08/19 04:39:13;;;;;;;4.85;3.50;;;;;;;18.02;100.00;95841.19;5030114;28;24459;-75
2023/08/19 04:41:40;;;;;;;7.90;3.57;;;;;;;18.04;100.00;95841.84;5030205;28;24975;-74
2023/08/19 04:44:06;;;;;;;9.35;3.90;;;;;;;18.11;100.00;95850.81;5030548;28;24416;-74
2023/08/19 04:46:33;;;;;;;6.50;3.70;;;;;;;18.10;100.00;95845.72;5030661;28;24443;-74
2023/08/19 04:48:59;;;;;;;5.20;3.75;;;;;;;18.15;100.00;95853.97;5044110;28;24518;-74
2023/08/19 04:51:27;;;;;;;6.87;3.53;;;;;;;18.20;100.00;95849.13;5034705;28;24427;-74
2023/08/19 04:53:54;;;;;;;6.27;3.33;;;;;;;18.23;100.00;95856.69;5030543;28;24463;-75
2023/08/19 04:56:20;;;;;;;8.65;3.97;;;;;;;18.22;100.00;95862.94;5031609;28;24432;-75
2023/08/19 04:58:47;;;;;;;7.80;3.75;;;;;;;18.14;100.00;95855.75;5029649;28;24462;-75
2023/08/19 05:01:13;;;;;;;6.60;3.53;;;;;;;18.04;100.00;95860.19;5033099;28;24432;-75
2023/08/19 05:03:40;;;;;;;8.30;3.33;;;;;;;18.08;100.00;95852.88;5033452;28;24435;-75
2023/08/19 05:06:06;;;;;;;6.60;3.40;;;;;;;18.29;100.00;95860.56;5027055;28;24469;-75
2023/08/19 05:08:34;;;;;;;6.18;3.38;;;;;;;18.41;100.00;95859.44;5025086;28;24538;-75
2023/08/19 05:11:01;;;;;;;7.57;3.92;;;;;;;18.48;100.00;95867.56;5034791;28;25010;-76
2023/08/19 05:13:27;;;;;;;8.60;3.75;;;;;;;18.43;100.00;95868.00;5033765;28;24998;-76
2023/08/19 05:15:54;;;;;;;6.88;3.78;;;;;;;18.50;100.00;95860.34;5033811;28;24431;-75
2023/08/19 05:18:20;;;;;;;7.20;3.30;;;;;;;18.60;100.00;95864.59;5040418;28;24469;-75
2023/08/19 05:20:47;;;;;;;8.70;3.75;;;;;;;18.66;100.00;95871.09;5053327;28;24443;-76
2023/08/19 05:23:13;;;;;;;9.30;4.25;;;;;;;18.83;100.00;95862.47;5038640;28;25009;-76
2023/08/19 05:25:41;;;;;;;5.82;3.42;;;;;;;18.90;100.00;95867.97;5033641;28;24447;-76
2023/08/19 05:28:07;;;;;;;9.82;4.13;;;;;;;18.84;100.00;95868.56;5036461;28;24428;-75
2023/08/19 05:30:34;;;;;;;13.43;3.97;;;;;;;18.77;100.00;95873.56;5053424;28;24997;-75
2023/08/19 05:33:00;;;;;;;9.20;3.75;;;;;;;18.72;100.00;95878.41;5053215;28;24552;-78
2023/08/19 05:35:27;;;;;;;6.40;3.63;;;;;;;18.85;100.00;95875.47;5053008;28;24431;-75
2023/08/19 05:37:53;;;;;;;8.63;4.10;;;;;;;18.94;100.00;95884.25;5049176;28;24452;-76
2023/08/19 05:40:20;;;;;;;9.13;3.92;;;;;;;18.95;100.00;95881.50;5033498;28;24539;-76
2023/08/19 05:42:48;;;;;;;6.78;3.78;;;;;;;18.97;100.00;95878.72;5043056;28;24431;-75
2023/08/19 05:45:15;;;;;;;9.57;4.17;;;;;;;19.10;100.00;95877.41;5052077;28;24954;-75
2023/08/19 05:47:42;;;;;;;8.43;3.92;;;;;;;19.05;100.00;95878.81;5050938;28;24423;-75
2023/08/19 05:50:09;;;;;;;6.60;4.00;;;;;;;19.08;100.00;95881.97;5033667;28;24444;-76
2023/08/19 05:52:35;;;;;;;7.38;3.78;;;;;;;19.21;100.00;95886.09;5032918;28;24436;-75
2023/08/19 05:55:02;;;;;;;6.18;3.65;;;;;;;19.24;100.00;95891.84;5032979;28;24439;-76
2023/08/19 05:57:28;;;;;;;8.60;4.00;;;;;;;19.36;100.00;95891.66;5032414;28;24978;-76
2023/08/19 05:59:56;;;;;;;6.30;3.90;;;;;;;19.43;100.00;95895.31;5049422;28;24462;-76
2023/08/19 06:02:23;;;;;;;6.57;3.60;;;;;;;19.46;100.00;95905.53;5038389;28;24438;-76
2023/08/19 06:04:50;;;;;;;6.03;3.53;;;;;;;19.39;100.00;95900.03;5051957;28;24814;-75
2023/08/19 06:07:25;;;;;;;7.38;3.97;;;;;;;19.38;100.00;95905.47;5039153;28;24443;-76
2023/08/19 06:09:51;;;;;;;5.47;3.70;;;;;;;19.52;100.00;95904.97;5049963;28;25037;-76
2023/08/19 06:12:18;;;;;;;6.38;3.97;;;;;;;19.52;100.00;95903.16;5052431;28;24431;-75
2023/08/19 06:14:44;;;;;;;6.25;4.05;;;;;;;19.61;100.00;95905.88;5052345;28;24438;-76
2023/08/19 06:17:12;;;;;;;11.18;3.75;;;;;;;19.73;100.00;95905.53;5051628;28;24431;-73
2023/08/19 06:19:39;;;;;;;5.40;3.50;;;;;;;19.90;100.00;95905.69;5035734;28;24471;-73
2023/08/19 06:22:05;;;;;;;7.83;3.83;;;;;;;19.97;100.00;95904.13;5050343;28;24471;-74
2023/08/19 06:24:32;;;;;;;5.82;3.33;;;;;;;20.09;100.00;95905.53;5051791;28;24439;-73
2023/08/19 06:26:58;;;;;;;6.30;3.53;;;;;;;20.12;100.00;95896.50;5051504;28;24435;-74
2023/08/19 06:29:24;;;;;;;9.50;4.20;;;;;;;20.22;100.00;95899.88;5051804;28;24799;-73
2023/08/19 06:31:52;;;;;;;9.88;4.50;;;;;;;20.38;100.00;95902.63;5035134;28;24439;-74
2023/08/19 06:34:20;;;;;;;9.55;4.22;;;;;;;20.59;100.00;95907.59;5032638;28;24448;-73
2023/08/19 06:36:49;;;;;;;8.20;4.05;;;;;;;20.73;100.00;95900.94;5039146;28;24435;-73
2023/08/19 06:39:23;;;;;;;8.00;3.85;;;;;;;20.90;100.00;95913.19;5051460;28;24462;-73
2023/08/19 06:41:52;;;;;;;5.72;3.70;;;;;;;20.99;100.00;95909.63;5035280;28;24451;-73
2023/08/19 06:44:21;;;;;;;8.20;3.85;;;;;;;21.05;100.00;95915.22;5029574;28;24478;-74
2023/08/19 06:46:48;;;;;;;10.20;3.95;;;;;;;21.01;100.00;95917.34;5030052;28;25033;-74
2023/08/19 06:49:15;;;;;;;5.82;3.35;;;;;;;21.12;100.00;95918.88;5042870;28;25013;-73
2023/08/19 06:51:44;;;;;;;6.20;3.63;;;;;;;21.17;100.00;95919.22;5035785;28;24439;-74
2023/08/19 06:54:11;;;;;;;9.88;3.85;;;;;;;21.33;100.00;95926.41;5031512;28;24781;-74
2023/08/19 06:56:46;;;;;;;5.55;3.45;;;;;;;21.44;100.00;95926.13;5037133;28;24427;-74
2023/08/19 06:59:19;;;;;;;7.00;3.75;;;;;;;21.55;100.00;95931.13;5050436;28;24462;-73
2023/08/19 07:01:50;;;;;;;8.48;3.50;;;;;;;21.71;100.00;95930.31;5035666;28;24442;-73
2023/08/19 07:04:22;;;;;;;7.50;3.50;;;;;;;21.96;100.00;95932.03;5015780;28;24803;-73
2023/08/19 07:06:50;;;;;;;7.13;3.78;;;;;;;22.24;100.00;95923.81;5031879;28;24546;-74
2023/08/19 07:09:17;;;;;;;8.07;3.70;;;;;;;22.48;100.00;95941.47;5031317;28;24462;-74
2023/08/19 07:11:44;;;;;;;6.77;3.60;;;;;;;22.74;100.00;95937.84;5046387;28;24442;-74
2023/08/19 07:14:11;;;;;;;8.97;3.87;;;;;;;22.83;100.00;95937.63;5039817;28;24432;-73
2023/08/19 07:16:39;;;;;;;7.88;4.03;;;;;;;23.12;100.00;95933.63;5029450;28;25017;-75
2023/08/19 07:19:11;;;;;;;12.53;4.00;;;;;;;23.28;100.00;95938.84;5031200;28;24467;-74
2023/08/19 07:21:39;;;;;;;5.53;3.60;;;;;;;23.74;100.00;95939.03;5044752;28;24439;-75
2023/08/19 07:24:08;;;;;;;6.55;3.50;;;;;;;24.15;100.00;95936.94;5047876;28;25042;-75
2023/08/19 07:26:37;;;;;;;11.40;3.72;;;;;;;24.47;100.00;95945.66;5030941;28;24438;-75
2023/08/19 07:29:04;;;;;;;10.00;3.35;;;;;;;24.79;100.00;95941.88;5031179;28;24446;-75
2023/08/19 07:31:31;;;;;;;7.95;3.63;;;;;;;25.01;100.00;95945.47;5043370;28;24431;-75
2023/08/19 07:33:59;;;;;;;6.20;3.40;;;;;;;24.97;100.00;95953.97;5050246;28;24745;-75
2023/08/19 07:36:26;;;;;;;7.95;3.42;;;;;;;24.94;100.00;95951.69;5016990;28;24439;-75
2023/08/19 07:38:53;;;;;;;8.45;3.80;;;;;;;25.19;100.00;95949.66;5050029;28;24470;-75
2023/08/19 07:41:21;;;;;;;6.07;3.47;;;;;;;25.32;100.00;95950.63;5039027;28;24804;-74
2023/08/19 07:43:48;;;;;;;8.83;3.80;;;;;;;25.44;100.00;95956.31;5026775;28;24439;-74
2023/08/19 07:46:17;;;;;;;8.30;3.40;;;;;;;25.46;100.00;95951.63;5048756;28;24438;-74
2023/08/19 07:48:44;;;;;;;8.98;3.60;;;;;;;25.47;100.00;95952.44;5042446;28;24483;-74
2023/08/19 07:51:10;;;;;;;7.05;3.28;;;;;;;25.37;100.00;95965.19;5032789;28;24442;-74
2023/08/19 07:53:37;;;;;;;8.02;3.45;;;;;;;25.53;100.00;95965.78;5034041;28;24486;-74
2023/08/19 07:56:05;;;;;;;5.60;3.28;;;;;;;25.73;100.00;95960.72;5030692;28;24436;-74
2023/08/19 07:58:34;;;;;;;7.88;3.00;;;;;;;25.98;100.00;95965.75;5030630;28;24510;-73
2023/08/19 08:01:00;;;;;;;10.13;3.88;;;;;;;26.17;100.00;95961.66;5030747;28;24435;-73
2023/08/19 08:03:27;;;;;;;11.50;3.50;;;;;;;26.33;100.00;95968.53;5046136;28;24462;-74
2023/08/19 08:05:53;;;;;;;5.68;3.03;;;;;;;26.36;100.00;95957.56;5033765;28;24447;-74
2023/08/19 08:08:20;;;;;;;8.67;3.57;;;;;;;26.38;100.00;95960.84;5034194;28;24443;-74
2023/08/19 08:10:46;;;;;;;11.20;3.60;;;;;;;26.50;100.00;95959.34;5038279;28;24442;-75
2023/08/19 08:13:12;;;;;;;6.40;3.20;;;;;;;26.52;100.00;95963.47;5036456;28;24443;-73
2023/08/19 08:15:40;;;;;;;6.45;3.00;;;;;;;26.53;100.00;95954.47;5030051;28;24436;-74
2023/08/19 08:18:07;;;;;;;10.75;3.38;;;;;;;26.60;100.00;95959.84;5037618;28;24463;-74
2023/08/19 08:20:34;;;;;;;6.85;3.55;;;;;;;26.46;100.00;95960.75;5028543;28;24432;-74
2023/08/19 08:23:00;;;;;;;10.23;3.55;;;;;;;26.71;100.00;95966.50;5028485;28;24796;-78
2023/08/19 08:25:27;;;;;;;7.13;3.30;;;;;;;26.97;100.00;95957.88;5034912;28;24435;-76
2023/08/19 08:27:53;;;;;;;10.70;3.47;;;;;;;27.07;100.00;95949.56;5033568;28;24439;-75
2023/08/19 08:30:20;;;;;;;8.37;3.27;;;;;;;27.25;100.00;95957.88;5035664;28;24442;-74
2023/08/19 08:32:48;;;;;;;8.25;3.47;;;;;;;27.30;100.00;95962.63;5027363;28;24990;-75
2023/08/19 08:35:14;;;;;;;6.35;3.40;;;;;;;27.19;100.00;95956.84;5041530;28;24462;-75
2023/08/19 08:37:41;;;;;;;6.60;3.40;;;;;;;27.18;100.00;95954.34;5030551;28;24432;-75
2023/08/19 08:40:08;;;;;;;6.05;3.30;;;;;;;27.19;100.00;95958.69;5033421;28;24464;-74
2023/08/19 08:42:35;;;;;;;7.05;3.38;;;;;;;27.36;99.49;95957.34;5022971;28;24486;-75
2023/08/19 08:45:02;;;;;;;9.50;3.70;;;;;;;27.57;97.27;95956.44;5030134;28;24459;-75
2023/08/19 08:47:30;;;;;;;5.38;3.25;;;;;;;27.77;95.91;95953.88;5038827;28;25001;-74
2023/08/19 08:49:58;;;;;;;7.60;3.30;;;;;;;27.92;97.23;95957.22;5034155;28;24443;-75
2023/08/19 08:52:25;;;;;;;8.35;3.00;;;;;;;27.99;98.08;95960.69;5034118;28;24427;-75
2023/08/19 08:54:53;;;;;;;12.07;3.47;;;;;;;28.30;91.17;95961.19;5033937;28;24416;-75
2023/08/19 08:57:20;;;;;;;7.05;3.30;;;;;;;28.58;92.11;95966.38;5033615;28;24966;-74
2023/08/19 08:59:46;;;;;;;5.25;2.97;;;;;;;28.84;93.50;95954.91;5033317;28;24991;-74
2023/08/19 09:02:14;;;;;;;6.90;3.50;;;;;;;28.80;89.30;95961.66;5043620;28;24446;-75
2023/08/19 09:04:44;;;;;;;8.73;3.08;;;;;;;28.77;88.13;95960.22;5053838;28;24419;-75
2023/08/19 09:07:16;;;;;;;9.10;3.50;;;;;;;28.81;86.65;95958.81;5033600;28;24435;-74
2023/08/19 09:09:46;;;;;;;8.23;3.28;;;;;;;28.93;87.35;95959.81;5039216;28;24442;-73
2023/08/19 09:12:13;;;;;;;11.70;3.55;;;;;;;28.94;68.51;95957.97;5052908;28;24431;-73
2023/08/19 09:14:42;;;;;;;6.20;3.00;;;;;;;29.28;70.30;95966.78;5053606;28;24438;-73
2023/08/19 09:17:11;;;;;;;7.55;2.65;;;;;;;29.08;64.11;95969.47;5033998;28;24428;-73
2023/08/19 09:19:38;;;;;;;6.25;2.92;;;;;;;29.30;63.34;95973.53;5033130;28;25328;-74
2023/08/19 09:22:20;;;;;;;5.00;2.83;;;;;;;29.27;61.83;95981.16;5033383;28;24439;-74
2023/08/19 09:24:47;;;;;;;5.80;2.97;;;;;;;29.51;62.94;95976.97;5044770;28;24988;-73
2023/08/19 09:27:17;;;;;;;7.78;3.00;;;;;;;29.55;60.89;95984.34;5034007;28;25007;-74
2023/08/19 09:29:50;;;;;;;6.75;2.70;;;;;;;30.00;62.44;95976.41;5049136;28;24458;-73
2023/08/19 09:32:17;;;;;;;9.93;3.63;;;;;;;29.85;59.59;95982.03;5040695;28;24443;-74
2023/08/19 09:34:43;;;;;;;8.50;3.30;;;;;;;30.04;61.74;95976.81;5042967;28;24447;-74
2023/08/19 09:37:11;;;;;;;6.30;3.10;;;;;;;30.29;61.50;95974.22;5036815;28;24808;-74
2023/08/19 09:39:38;;;;;;;6.13;3.30;;;;;;;30.53;61.21;95981.47;5035713;28;24459;-75
2023/08/19 09:42:05;;;;;;;6.15;3.30;;;;;;;30.55;57.94;95975.91;5052343;28;24576;-74
2023/08/19 09:44:32;;;;;;;5.00;3.10;;;;;;;31.01;57.45;95967.56;5052916;28;24443;-74
2023/08/19 09:47:02;;;;;;;6.03;3.33;;;;;;;31.23;55.64;95977.84;5036047;28;24446;-74
2023/08/19 09:49:29;;;;;;;6.53;3.00;;;;;;;30.98;57.38;95972.53;5032976;28;24436;-74
2023/08/19 09:51:56;;;;;;;6.95;3.40;;;;;;;31.04;54.68;95972.47;5032750;28;25089;-74
2023/08/19 09:54:23;;;;;;;8.70;3.08;;;;;;;31.14;53.49;95969.28;5033018;28;24994;-74
2023/08/19 09:56:56;;;;;;;12.10;3.40;;;;;;;31.10;54.97;95970.75;5047087;28;24990;-74
2023/08/19 09:59:22;;;;;;;7.93;3.25;;;;;;;31.34;56.79;95971.81;5052856;22;24529;-73
2023/08/19 10:01:50;;;;;;;6.20;3.50;;;;;;;31.71;52.78;95974.50;5031773;28;24443;-76
2023/08/19 10:04:17;;;;;;;8.30;3.73;;;;;;;31.94;53.16;95971.97;5029484;28;24427;-76
2023/08/19 10:06:47;;;;;;;6.97;3.13;;;;;;;32.17;57.44;95971.25;5031614;28;24450;-76
2023/08/19 10:09:18;;;;;;;5.88;3.30;;;;;;;32.95;48.61;95970.31;5036584;28;24464;-76
2023/08/19 10:11:46;;;;;;;5.68;3.22;;;;;;;32.75;47.17;95973.31;5048675;28;24466;-76
2023/08/19 10:14:15;;;;;;;7.75;2.65;;;;;;;32.40;47.17;95977.72;5052101;28;24446;-76
2023/08/19 10:16:46;;;;;;;4.25;2.83;;;;;;;31.80;51.34;95970.47;5051944;28;24442;-76
2023/08/19 10:19:17;;;;;;;4.78;2.42;;;;;;;31.87;51.02;95973.91;5051493;28;24532;-76
2023/08/19 10:21:47;;;;;;;7.53;2.80;;;;;;;32.13;54.69;95977.28;5051713;28;24435;-76
2023/08/19 10:24:14;;;;;;;6.38;2.92;;;;;;;32.13;48.83;95978.09;5051448;28;24438;-76
2023/08/19 10:26:41;;;;;;;9.25;2.65;;;;;;;32.18;50.08;95974.72;5051877;28;24434;-76
2023/08/19 10:29:08;;;;;;;8.93;3.10;;;;;;;32.47;48.19;95975.81;5051501;28;24439;-76
2023/08/19 10:31:36;;;;;;;8.45;3.13;;;;;;;32.96;47.98;95966.59;5051440;28;24435;-76
2023/08/19 10:34:11;;;;;;;7.53;3.28;;;;;;;32.72;43.65;95970.28;5052358;28;24438;-76
2023/08/19 10:36:39;;;;;;;6.40;2.80;;;;;;;33.04;49.76;95967.28;5047412;28;24486;-76
2023/08/19 10:39:15;;;;;;;5.13;2.80;;;;;;;33.11;52.35;95970.69;5049929;28;24493;-76
2023/08/19 10:41:42;;;;;;;7.55;2.83;;;;;;;33.41;50.10;95967.84;5050029;28;24978;-76
2023/08/19 10:44:11;;;;;;;6.68;3.03;;;;;;;33.22;48.39;95973.34;5051705;28;24446;-76
2023/08/19 10:46:40;;;;;;;4.85;2.97;;;;;;;32.96;44.14;95974.63;5051601;28;24435;-76
2023/08/19 10:49:07;;;;;;;4.25;2.90;;;;;;;33.09;51.01;95973.59;5051268;28;24996;-76
2023/08/19 10:51:54;;;;;;;9.60;3.20;;;;;;;33.12;44.13;95981.19;5051575;28;24447;-76
2023/08/19 10:54:28;;;;;;;4.55;2.70;;;;;;;32.89;46.82;95976.59;5048987;28;24974;-76
2023/08/19 10:57:07;;;;;;;4.32;2.38;;;;;;;32.54;41.60;95979.19;5051359;28;24422;-77
2023/08/19 10:59:35;;;;;;;6.40;2.70;;;;;;;32.26;40.83;95982.44;5050846;28;24463;-76
2023/08/19 11:02:04;;;;;;;6.18;3.25;;;;;;;32.26;42.32;95980.63;5051397;28;24431;-76
2023/08/19 11:04:31;;;;;;;4.23;2.70;;;;;;;32.29;42.74;95982.81;5051289;28;25008;-75
2023/08/19 11:06:58;;;;;;;5.47;3.10;;;;;;;32.36;42.38;95984.59;5051081;28;24442;-76
2023/08/19 11:09:24;;;;;;;8.50;3.00;;;;;;;32.64;41.30;95978.66;5050839;28;24438;-76
2023/08/19 11:11:51;;;;;;;6.10;2.95;;;;;;;32.73;40.57;95977.25;5049449;28;24438;-75
2023/08/19 11:14:18;;;;;;;4.47;3.20;;;;;;;32.97;44.71;95975.47;5051031;28;24432;-76
2023/08/19 11:16:48;;;;;;;9.52;3.10;;;;;;;32.76;40.82;95968.75;5051754;28;24446;-77
2023/08/19 11:19:17;;;;;;;6.65;2.80;;;;;;;33.27;45.14;95978.03;5050367;28;25071;-77
2023/08/19 11:21:44;;;;;;;7.00;2.90;;;;;;;33.59;50.66;95967.75;5048998;28;24453;-76
2023/08/19 11:24:11;;;;;;;6.70;2.85;;;;;;;33.75;43.73;95965.41;5050288;28;24427;-76
2023/08/19 11:26:38;;;;;;;11.90;2.67;;;;;;;33.83;47.19;95970.41;5051344;28;25036;-76
2023/08/19 11:29:05;;;;;;;5.90;2.85;;;;;;;33.72;42.60;95975.56;5051025;28;24527;-77